Home > Products > Valid Products > MTR

000
SAUS45 KRIW 020957
MTRP60
METAR KP60 020956Z AUTO 00000KT 06/02 A3034 RMK AO1 SLP197 T00560017
$





000
SAUS45 KRIW 020857
MTRP60
METAR KP60 020856Z AUTO 00000KT 07/02 A3033 RMK AO1 SLP186 T00670022
55001 $





000
SAUS45 KRIW 020857
MTRP60
METAR KP60 020856Z AUTO 00000KT 07/02 A3033 RMK AO1 SLP186 T00670022
55001 $





000
SAUS45 KRIW 020757
MTRP60
METAR KP60 020756Z AUTO 32003KT 07/01 A3033 RMK AO1 SLP185 T00670011
$





000
SAUS45 KRIW 020657
MTRP60
METAR KP60 020656Z AUTO 32003KT 07/01 A3033 RMK AO1 SLP189 T00720011
402440017 $





000
SAUS45 KRIW 020557
MTRP60
METAR KP60 020556Z AUTO 00000KT 09/01 A3034 RMK AO1 SLP196 T00890011
10244 20083 50003 $





000
SAUS45 KRIW 020557
MTRP60
METAR KP60 020556Z AUTO 00000KT 09/01 A3034 RMK AO1 SLP196 T00890011
10244 20083 50003 $





000
SAUS45 KRIW 020457
MTRP60
METAR KP60 020456Z AUTO 30003KT 10/02 A3034 RMK AO1 SLP201 T01000017
$





000
SAUS45 KRIW 020357
MTRP60
METAR KP60 020356Z AUTO 00000KT 12/03 A3034 RMK AO1 SLP200 T01170028
$





000
SAUS45 KRIW 020258
MTRP60
METAR KP60 020256Z AUTO 31003KT 15/03 A3032 RMK AO1 SLP189 T01500028
55002 $





000
SAUS45 KRIW 020258
MTRP60
METAR KP60 020256Z AUTO 31003KT 15/03 A3032 RMK AO1 SLP189 T01500028
55002 $





000
SAUS45 KRIW 020157
MTRP60
METAR KP60 020156Z AUTO 00000KT 21/03 A3032 RMK AO1 SLP191 T02060028
$





000
SAUS45 KRIW 020057
MTRP60
METAR KP60 020056Z AUTO 00000KT 22/04 A3032 RMK AO1 SLP196 T02220044
$





000
SAUS45 KRIW 020057
MTRP60
METAR KP60 020056Z AUTO 00000KT 22/04 A3032 RMK AO1 SLP196 T02220044
$





000
SAUS45 KRIW 012357
MTRP60
METAR KP60 012356Z AUTO 09004KT 22/01 A3033 RMK AO1 SLP203 T02220006
10244 20183 56012 $





000
SAUS45 KRIW 012357
MTRP60
METAR KP60 012356Z AUTO 09004KT 22/01 A3033 RMK AO1 SLP203 T02220006
10244 20183 56012 $





000
SAUS45 KRIW 012257
MTRP60
METAR KP60 012256Z AUTO 00000KT 23/00 A3034 RMK AO1 SLP201 T02330000
$





000
SAUS45 KRIW 012157
MTRP60
METAR KP60 012156Z AUTO VRB05KT 22/05 A3036 RMK AO1 SLP210 T02170050
$





000
SAUS45 KRIW 012057
MTRP60
METAR KP60 012056Z AUTO 24/03 A3038 RMK AO1 SLP208 T02390028 56014 $





000
SAUS45 KRIW 012057
MTRP60
METAR KP60 012056Z AUTO 24/03 A3038 RMK AO1 SLP208 T02390028 56014 $





000
SAUS45 KRIW 011957
MTRP60
METAR KP60 011956Z AUTO VRB03KT 24/03 A3039 RMK AO1 SLP209 T02390033
$





000
SAUS45 KRIW 011857
MTRP60
METAR KP60 011856Z AUTO VRB03KT 22/04 A3040 RMK AO1 SLP214 T02220044
$





000
SAUS45 KRIW 011857
MTRP60
METAR KP60 011856Z AUTO VRB03KT 22/04 A3040 RMK AO1 SLP214 T02220044
$





000
SAUS45 KRIW 011757
MTRP60
METAR KP60 011756Z AUTO 00000KT 18/07 A3043 RMK AO1 SLP229 T01830067
10189 20017 58006 $





000
SAUS45 KRIW 011757
MTRP60
METAR KP60 011756Z AUTO 00000KT 18/07 A3043 RMK AO1 SLP229 T01830067
10189 20017 58006 $





000
SAUS45 KRIW 011657
MTRP60
METAR KP60 011656Z AUTO VRB03KT 17/04 A3044 RMK AO1 SLP231 T01670044
$





000
SAUS45 KRIW 011557
MTRP60
METAR KP60 011556Z AUTO VRB03KT 15/07 A3045 RMK AO1 SLP234 T01500072
$





000
SAUS45 KRIW 011557
MTRP60
METAR KP60 011556Z AUTO VRB03KT 15/07 A3045 RMK AO1 SLP234 T01500072
$





000
SAUS45 KRIW 011458
MTRP60
METAR KP60 011456Z AUTO 10003KT 13/07 A3045 RMK AO1 SLP234 T01330067
53006 $





000
SAUS45 KRIW 011357
MTRP60
METAR KP60 011356Z AUTO 00000KT 07/02 A3044 RMK AO1 SLP232 T00720022
$





000
SAUS45 KRIW 011257
MTRP60
METAR KP60 011256Z AUTO 00000KT 03/M01 A3043 RMK AO1 SLP237
T00281006 $





000
SAUS45 KRIW 011157
MTRP60
METAR KP60 011156Z AUTO 00000KT 02/M01 A3043 RMK AO1 SLP234
T00221011 10089 20022 57004 $





000
SAUS45 KRIW 011157
MTRP60
METAR KP60 011156Z AUTO 00000KT 02/M01 A3043 RMK AO1 SLP234
T00221011 10089 20022 57004 $





000
SAUS45 KRIW 011057
MTRP60
METAR KP60 011056Z AUTO 31003KT 03/M01 A3043 RMK AO1 SLP231
T00281011 $





000
SAUS45 KRIW 011057
MTRP60
METAR KP60 011056Z AUTO 31003KT 03/M01 A3043 RMK AO1 SLP231
T00281011 $





000
SAUS45 KRIW 010957
MTRP60
METAR KP60 010956Z AUTO 31003KT 04/M02 A3044 RMK AO1 SLP233
T00391017 $





000
SAUS45 KRIW 010857
MTRP60
METAR KP60 010856Z AUTO 00000KT 05/M01 A3044 RMK AO1 SLP237
T00501011 58006 $





000
SAUS45 KRIW 010857
MTRP60
METAR KP60 010856Z AUTO 00000KT 05/M01 A3044 RMK AO1 SLP237
T00501011 58006 $





000
SAUS45 KRIW 010757
MTRP60
METAR KP60 010756Z AUTO 31003KT 06/M01 A3045 RMK AO1 SLP235
T00561006 $





000
SAUS45 KRIW 010657
MTRP60
METAR KP60 010656Z AUTO 32003KT 07/M01 A3046 RMK AO1 SLP233
T00721006 402500022 $





000
SAUS45 KRIW 010557
MTRP60
METAR KP60 010556Z AUTO 28003KT 09/01 A3047 RMK AO1 SLP245 T00890006
10239 20089 51006 $





000
SAUS45 KRIW 010557
MTRP60
METAR KP60 010556Z AUTO 28003KT 09/01 A3047 RMK AO1 SLP245 T00890006
10239 20089 51006 $





000
SAUS45 KRIW 010457
MTRP60
METAR KP60 010456Z AUTO 00000KT 12/01 A3046 RMK AO1 SLP244 T01170006
$





000
SAUS45 KRIW 010457
MTRP60
METAR KP60 010456Z AUTO 00000KT 12/01 A3046 RMK AO1 SLP244 T01170006
$





000
SAUS45 KRIW 010357
MTRP60
METAR KP60 010356Z AUTO 32004KT 13/02 A3046 RMK AO1 SLP240 T01330017
$





000
SAUS45 KRIW 010257
MTRP60
METAR KP60 010256Z AUTO 31003KT 15/02 A3044 RMK AO1 SLP234 T01500022
53001 $





000
SAUS45 KRIW 010257
MTRP60
METAR KP60 010256Z AUTO 31003KT 15/02 A3044 RMK AO1 SLP234 T01500022
53001 $





000
SAUS45 KRIW 010157
MTRP60
METAR KP60 010156Z AUTO VRB03KT 21/M02 A3044 RMK AO1 SLP228
T02111022 $





000
SAUS45 KRIW 010057
MTRP60
METAR KP60 010056Z AUTO 00000KT 23/M01 A3043 RMK AO1 SLP236
T02281011 $





000
SAUS45 KRIW 312357
MTRP60
METAR KP60 312356Z AUTO 00000KT 23/M02 A3044 RMK AO1 SLP235
T02331017 10250 20178 56012





000
SAUS45 KRIW 312357
MTRP60
METAR KP60 312356Z AUTO 00000KT 23/M02 A3044 RMK AO1 SLP235
T02331017 10250 20178 56012





000
SAUS45 KRIW 312257
MTRP60
METAR KP60 312256Z AUTO VRB04KT 24/00 A3045 RMK AO1 SLP237 T02440000





000
SAUS45 KRIW 312257
MTRP60
METAR KP60 312256Z AUTO VRB04KT 24/00 A3045 RMK AO1 SLP237 T02440000





000
SAUS45 KRIW 312157
MTRP60
METAR KP60 312156Z AUTO VRB03KT 24/01 A3046 RMK AO1 SLP240 T02390011





000
SAUS45 KRIW 312057
MTRP60
METAR KP60 312056Z AUTO VRB04KT 22/01 A3048 RMK AO1 SLP251 T02170011
56012





000
SAUS45 KRIW 312057
MTRP60
METAR KP60 312056Z AUTO VRB04KT 22/01 A3048 RMK AO1 SLP251 T02170011
56012





000
SAUS45 KRIW 311958
MTRP60
METAR KP60 311956Z AUTO VRB04KT 23/01 A3049 RMK AO1 SLP248 T02330006





000
SAUS45 KRIW 311857
MTRP60
METAR KP60 311856Z AUTO 00000KT 23/04 A3051 RMK AO1 SLP252 T02330039





000
SAUS45 KRIW 311857
MTRP60
METAR KP60 311856Z AUTO 00000KT 23/04 A3051 RMK AO1 SLP252 T02330039





000
SAUS45 KRIW 311757
MTRP60
METAR KP60 311756Z AUTO VRB03KT 17/06 A3053 RMK AO1 SLP269 T01720061
10178 20022 56006





000
SAUS45 KRIW 311657
MTRP60
METAR KP60 311656Z AUTO 12004KT 14/08 A3053 RMK AO1 SLP274 T01440078





000
SAUS45 KRIW 311557
MTRP60
METAR KP60 311556Z AUTO 11003KT 14/07 A3054 RMK AO1 SLP276 T01390072





000
SAUS45 KRIW 311457
MTRP60
METAR KP60 311456Z AUTO 11004KT 13/07 A3055 RMK AO1 SLP274 T01280072
51004





000
SAUS45 KRIW 311457
MTRP60
METAR KP60 311456Z AUTO 11004KT 13/07 A3055 RMK AO1 SLP274 T01280072
51004





000
SAUS45 KRIW 311357
MTRP60
METAR KP60 311356Z AUTO 00000KT 08/03 A3054 RMK AO1 SLP270 T00780033





000
SAUS45 KRIW 311257
MTRP60
METAR KP60 311256Z AUTO 31003KT 03/01 A3054 RMK AO1 SLP276 T00280006





000
SAUS45 KRIW 311157
MTRP60
METAR KP60 311156Z AUTO 00000KT 03/01 A3053 RMK AO1 SLP274 T00280006
10083 20028 57001





000
SAUS45 KRIW 311157
MTRP60
METAR KP60 311156Z AUTO 00000KT 03/01 A3053 RMK AO1 SLP274 T00280006
10083 20028 57001





000
SAUS45 KRIW 311057
MTRP60
METAR KP60 311056Z AUTO 00000KT 03/01 A3053 RMK AO1 SLP274 T00280006





000
SAUS45 KRIW 311057
MTRP60
METAR KP60 311056Z AUTO 00000KT 03/01 A3053 RMK AO1 SLP274 T00280006





000
SAUS45 KRIW 310957
MTRP60
METAR KP60 310956Z AUTO 00000KT 04/01 A3054 RMK AO1 SLP273 T00390011





000
SAUS45 KRIW 310857
MTRP60
METAR KP60 310856Z AUTO 00000KT 04/01 A3054 RMK AO1 SLP275 T00440011
58001





000
SAUS45 KRIW 310757
MTRP60
METAR KP60 310756Z AUTO 00000KT 06/01 A3054 RMK AO1 SLP275 T00560006





000
SAUS45 KRIW 310657
MTRP60
METAR KP60 310656Z AUTO 00000KT 07/01 A3054 RMK AO1 SLP272 T00670011
402220006





000
SAUS45 KRIW 310657
MTRP60
METAR KP60 310656Z AUTO 00000KT 07/01 A3054 RMK AO1 SLP272 T00670011
402220006





000
SAUS45 KRIW 310557
MTRP60
METAR KP60 310556Z AUTO 00000KT 08/02 A3054 RMK AO1 SLP275 T00830017
10222 20083 51007





000
SAUS45 KRIW 310557
MTRP60
METAR KP60 310556Z AUTO 00000KT 08/02 A3054 RMK AO1 SLP275 T00830017
10222 20083 51007





000
SAUS45 KRIW 310457
MTRP60
METAR KP60 310456Z AUTO 30003KT 10/01 A3053 RMK AO1 SLP269 T01000011





000
SAUS45 KRIW 310357
MTRP60
METAR KP60 310356Z AUTO 29004KT 11/02 A3053 RMK AO1 SLP276 T01060017





000
SAUS45 KRIW 310357
MTRP60
METAR KP60 310356Z AUTO 29004KT 11/02 A3053 RMK AO1 SLP276 T01060017





000
SAUS45 KRIW 310257
MTRP60
METAR KP60 310256Z AUTO 30003KT 14/03 A3052 RMK AO1 SLP266 T01390028
53001





000
SAUS45 KRIW 310157
MTRP60
METAR KP60 310156Z AUTO VRB03KT 20/M01 A3051 RMK AO1 SLP259
T02001006





000
SAUS45 KRIW 310057
MTRP60
METAR KP60 310056Z AUTO 13003KT 21/00 A3051 RMK AO1 SLP267 T02110000





000
SAUS45 KRIW 302357
MTRP60
METAR KP60 302356Z AUTO 00000KT 22/02 A3051 RMK AO1 SLP270 T02170022
10222 20161 56008





000
SAUS45 KRIW 302357
MTRP60
METAR KP60 302356Z AUTO 00000KT 22/02 A3051 RMK AO1 SLP270 T02170022
10222 20161 56008





000
SAUS45 KRIW 302257
MTRP60
METAR KP60 302256Z AUTO VRB04KT 21/03 A3052 RMK AO1 SLP271 T02110028





000
SAUS45 KRIW 302257
MTRP60
METAR KP60 302256Z AUTO VRB04KT 21/03 A3052 RMK AO1 SLP271 T02110028





000
SAUS45 KRIW 302157
MTRP60
METAR KP60 302156Z AUTO 10005KT 21/05 A3053 RMK AO1 SLP276 T02110050





000
SAUS45 KRIW 302058
MTRP60
METAR KP60 302056Z AUTO 12007KT 19/05 A3055 RMK AO1 SLP284 T01940050
56007





000
SAUS45 KRIW 301957
MTRP60
METAR KP60 301956Z AUTO VRB05KT 19/06 A3055 RMK AO1 SLP283 T01940056





000
SAUS45 KRIW 301957
MTRP60
METAR KP60 301956Z AUTO VRB05KT 19/06 A3055 RMK AO1 SLP283 T01940056





000
SAUS45 KRIW 301857
MTRP60
METAR KP60 301856Z AUTO VRB04KT 19/05 A3056 RMK AO1 SLP283 T01940050





000
SAUS45 KRIW 301757
MTRP60
METAR KP60 301756Z AUTO 11004KT 17/04 A3057 RMK AO1 SLP294 T01670044
10172 20006 55001





000
SAUS45 KRIW 301757
MTRP60
METAR KP60 301756Z AUTO 11004KT 17/04 A3057 RMK AO1 SLP294 T01670044
10172 20006 55001





000
SAUS45 KRIW 301657
MTRP60
METAR KP60 301656Z AUTO 07005KT 16/06 A3057 RMK AO1 SLP290 T01610056





000
SAUS45 KRIW 301557
MTRP60
METAR KP60 301556Z AUTO 11004KT 13/04 A3057 RMK AO1 SLP295 T01280044





000
SAUS45 KRIW 301557
MTRP60
METAR KP60 301556Z AUTO 11004KT 13/04 A3057 RMK AO1 SLP295 T01280044





000
SAUS45 KRIW 301458
MTRP60
METAR KP60 301456Z AUTO 14003KT 11/06 A3058 RMK AO1 SLP292 T01110056
51008





000
SAUS45 KRIW 301458
MTRP60
METAR KP60 301456Z AUTO 14003KT 11/06 A3058 RMK AO1 SLP292 T01110056
51008





000
SAUS45 KRIW 301357
MTRP60
METAR KP60 301356Z AUTO 00000KT 06/03 A3057 RMK AO1 SLP289 T00610033





000
SAUS45 KRIW 301357
MTRP60
METAR KP60 301356Z AUTO 00000KT 06/03 A3057 RMK AO1 SLP289 T00610033





000
SAUS45 KRIW 301257
MTRP60
METAR KP60 301256Z AUTO 00000KT 02/00 A3056 RMK AO1 SLP291 T00170000





000
SAUS45 KRIW 301157
MTRP60
METAR KP60 301156Z AUTO 00000KT 01/M01 A3054 RMK AO1 SLP287
T00111006 10056 20011 51003





000
SAUS45 KRIW 301157
MTRP60
METAR KP60 301156Z AUTO 00000KT 01/M01 A3054 RMK AO1 SLP287
T00111006 10056 20011 51003





000
SAUS45 KRIW 301057
MTRP60
METAR KP60 301056Z AUTO 31004KT 02/00 A3054 RMK AO1 SLP286 T00170000





    US Dept of Commerce
    National Oceanic and Atmospheric Administration
    National Weather Service
    1325 East West Highway
    Silver Spring, MD 20910
    Page Author: NWS Internet Services Team
Disclaimer
Information Quality
Credits
Glossary
Privacy Policy
Freedom of Information Act (FOIA)
About Us
Career Opportunities